sensor_id;sensor_type;location;lat;lon;timestamp;P1;durP1;ratioP1;P2;durP2;ratioP2
55067;SDS011;40965;52.368;9.712;2024-03-22T00:01:29;14.88;;;9.98;;
55067;SDS011;40965;52.368;9.712;2024-03-22T00:03:55;14.07;;;10.13;;
55067;SDS011;40965;52.368;9.712;2024-03-22T00:06:21;14.65;;;10.13;;
55067;SDS011;40965;52.368;9.712;2024-03-22T00:08:52;18.20;;;11.05;;
55067;SDS011;40965;52.368;9.712;2024-03-22T00:11:19;14.73;;;11.30;;
55067;SDS011;40965;52.368;9.712;2024-03-22T00:13:44;17.17;;;12.07;;
55067;SDS011;40965;52.368;9.712;2024-03-22T00:16:11;14.80;;;11.13;;
55067;SDS011;40965;52.368;9.712;2024-03-22T00:18:37;18.27;;;13.32;;
55067;SDS011;40965;52.368;9.712;2024-03-22T00:21:06;19.15;;;13.20;;
55067;SDS011;40965;52.368;9.712;2024-03-22T00:23:32;22.73;;;13.93;;
55067;SDS011;40965;52.368;9.712;2024-03-22T00:25:59;22.67;;;13.85;;
55067;SDS011;40965;52.368;9.712;2024-03-22T00:28:28;25.98;;;14.25;;
55067;SDS011;40965;52.368;9.712;2024-03-22T00:31:03;26.60;;;14.30;;
55067;SDS011;40965;52.368;9.712;2024-03-22T00:33:29;22.15;;;15.93;;
55067;SDS011;40965;52.368;9.712;2024-03-22T00:35:59;22.58;;;15.05;;
55067;SDS011;40965;52.368;9.712;2024-03-22T00:38:28;26.25;;;15.93;;
55067;SDS011;40965;52.368;9.712;2024-03-22T00:41:02;22.23;;;15.52;;
55067;SDS011;40965;52.368;9.712;2024-03-22T00:43:28;24.17;;;16.23;;
55067;SDS011;40965;52.368;9.712;2024-03-22T00:45:56;25.35;;;17.15;;
55067;SDS011;40965;52.368;9.712;2024-03-22T00:48:23;28.17;;;18.95;;
55067;SDS011;40965;52.368;9.712;2024-03-22T00:50:50;30.65;;;20.05;;
55067;SDS011;40965;52.368;9.712;2024-03-22T00:53:16;32.50;;;19.88;;
55067;SDS011;40965;52.368;9.712;2024-03-22T00:55:43;29.35;;;19.95;;
55067;SDS011;40965;52.368;9.712;2024-03-22T00:58:08;32.10;;;21.25;;
55067;SDS011;40965;52.368;9.712;2024-03-22T01:00:35;33.15;;;20.42;;
55067;SDS011;40965;52.368;9.712;2024-03-22T01:03:06;35.55;;;21.55;;
55067;SDS011;40965;52.368;9.712;2024-03-22T01:05:33;37.88;;;21.50;;
55067;SDS011;40965;52.368;9.712;2024-03-22T01:07:59;35.88;;;21.77;;
55067;SDS011;40965;52.368;9.712;2024-03-22T01:10:34;39.97;;;23.63;;
55067;SDS011;40965;52.368;9.712;2024-03-22T01:13:00;33.67;;;20.98;;
55067;SDS011;40965;52.368;9.712;2024-03-22T01:15:31;37.40;;;23.88;;
55067;SDS011;40965;52.368;9.712;2024-03-22T01:17:57;38.28;;;23.08;;
55067;SDS011;40965;52.368;9.712;2024-03-22T01:20:23;31.30;;;20.98;;
55067;SDS011;40965;52.368;9.712;2024-03-22T01:22:49;37.83;;;21.48;;
55067;SDS011;40965;52.368;9.712;2024-03-22T01:25:16;36.83;;;22.73;;
55067;SDS011;40965;52.368;9.712;2024-03-22T01:27:43;40.25;;;22.55;;
55067;SDS011;40965;52.368;9.712;2024-03-22T01:30:11;39.35;;;23.60;;
55067;SDS011;40965;52.368;9.712;2024-03-22T01:32:47;36.55;;;23.27;;
55067;SDS011;40965;52.368;9.712;2024-03-22T01:35:13;37.85;;;23.65;;
55067;SDS011;40965;52.368;9.712;2024-03-22T01:37:42;36.40;;;23.17;;
55067;SDS011;40965;52.368;9.712;2024-03-22T01:40:09;37.75;;;22.70;;
55067;SDS011;40965;52.368;9.712;2024-03-22T01:42:35;40.65;;;24.33;;
55067;SDS011;40965;52.368;9.712;2024-03-22T01:45:02;38.10;;;23.92;;
55067;SDS011;40965;52.368;9.712;2024-03-22T01:47:28;42.55;;;25.10;;
55067;SDS011;40965;52.368;9.712;2024-03-22T01:49:55;38.53;;;21.52;;
55067;SDS011;40965;52.368;9.712;2024-03-22T01:52:22;34.33;;;23.65;;
55067;SDS011;40965;52.368;9.712;2024-03-22T01:54:52;37.60;;;23.83;;
55067;SDS011;40965;52.368;9.712;2024-03-22T01:57:17;40.80;;;23.55;;
55067;SDS011;40965;52.368;9.712;2024-03-22T01:59:48;42.05;;;26.17;;
55067;SDS011;40965;52.368;9.712;2024-03-22T02:02:19;40.05;;;23.17;;
55067;SDS011;40965;52.368;9.712;2024-03-22T02:04:45;42.67;;;23.23;;
55067;SDS011;40965;52.368;9.712;2024-03-22T02:07:14;41.15;;;24.25;;
55067;SDS011;40965;52.368;9.712;2024-03-22T02:09:40;39.08;;;22.85;;
55067;SDS011;40965;52.368;9.712;2024-03-22T02:12:06;43.88;;;23.17;;
55067;SDS011;40965;52.368;9.712;2024-03-22T02:14:40;36.53;;;22.65;;
55067;SDS011;40965;52.368;9.712;2024-03-22T02:17:07;41.00;;;25.08;;
55067;SDS011;40965;52.368;9.712;2024-03-22T02:19:34;38.92;;;22.90;;
55067;SDS011;40965;52.368;9.712;2024-03-22T02:22:03;39.40;;;23.38;;
55067;SDS011;40965;52.368;9.712;2024-03-22T02:24:33;37.67;;;21.92;;
55067;SDS011;40965;52.368;9.712;2024-03-22T02:26:58;33.95;;;20.52;;
55067;SDS011;40965;52.368;9.712;2024-03-22T02:29:28;34.65;;;21.77;;
55067;SDS011;40965;52.368;9.712;2024-03-22T02:31:56;41.38;;;23.75;;
55067;SDS011;40965;52.368;9.712;2024-03-22T02:34:24;39.85;;;22.50;;
55067;SDS011;40965;52.368;9.712;2024-03-22T02:36:50;33.60;;;20.92;;
55067;SDS011;40965;52.368;9.712;2024-03-22T02:39:16;37.58;;;22.50;;
55067;SDS011;40965;52.368;9.712;2024-03-22T02:41:43;38.50;;;22.50;;
55067;SDS011;40965;52.368;9.712;2024-03-22T02:44:10;39.97;;;25.13;;
55067;SDS011;40965;52.368;9.712;2024-03-22T02:46:36;40.45;;;23.67;;
55067;SDS011;40965;52.368;9.712;2024-03-22T02:49:05;40.90;;;23.85;;
55067;SDS011;40965;52.368;9.712;2024-03-22T02:51:31;37.08;;;22.77;;
55067;SDS011;40965;52.368;9.712;2024-03-22T02:54:03;44.53;;;25.05;;
55067;SDS011;40965;52.368;9.712;2024-03-22T02:56:43;40.53;;;24.55;;
55067;SDS011;40965;52.368;9.712;2024-03-22T02:59:13;40.95;;;23.02;;
55067;SDS011;40965;52.368;9.712;2024-03-22T03:01:41;47.63;;;26.08;;
55067;SDS011;40965;52.368;9.712;2024-03-22T03:04:10;39.95;;;25.27;;
55067;SDS011;40965;52.368;9.712;2024-03-22T03:06:38;40.40;;;23.88;;
55067;SDS011;40965;52.368;9.712;2024-03-22T03:09:07;45.42;;;25.23;;
55067;SDS011;40965;52.368;9.712;2024-03-22T03:11:35;40.95;;;23.48;;
55067;SDS011;40965;52.368;9.712;2024-03-22T03:14:03;38.00;;;23.20;;
55067;SDS011;40965;52.368;9.712;2024-03-22T03:16:31;38.35;;;22.25;;
55067;SDS011;40965;52.368;9.712;2024-03-22T03:19:00;43.17;;;24.92;;
55067;SDS011;40965;52.368;9.712;2024-03-22T03:21:26;45.08;;;25.23;;
55067;SDS011;40965;52.368;9.712;2024-03-22T03:23:53;40.08;;;23.38;;
55067;SDS011;40965;52.368;9.712;2024-03-22T03:26:18;38.78;;;25.52;;
55067;SDS011;40965;52.368;9.712;2024-03-22T03:28:45;41.10;;;25.13;;
55067;SDS011;40965;52.368;9.712;2024-03-22T03:31:11;43.38;;;24.15;;
55067;SDS011;40965;52.368;9.712;2024-03-22T03:33:38;40.38;;;24.13;;
55067;SDS011;40965;52.368;9.712;2024-03-22T03:36:04;39.63;;;23.88;;
55067;SDS011;40965;52.368;9.712;2024-03-22T03:38:31;48.17;;;23.55;;
55067;SDS011;40965;52.368;9.712;2024-03-22T03:40:57;44.83;;;25.48;;
55067;SDS011;40965;52.368;9.712;2024-03-22T03:43:23;46.65;;;24.85;;
55067;SDS011;40965;52.368;9.712;2024-03-22T03:45:52;45.83;;;25.52;;
55067;SDS011;40965;52.368;9.712;2024-03-22T03:48:19;46.38;;;25.60;;
55067;SDS011;40965;52.368;9.712;2024-03-22T03:50:54;44.72;;;25.98;;
55067;SDS011;40965;52.368;9.712;2024-03-22T03:53:24;44.05;;;23.67;;
55067;SDS011;40965;52.368;9.712;2024-03-22T03:55:52;51.00;;;25.67;;
55067;SDS011;40965;52.368;9.712;2024-03-22T03:58:19;46.20;;;26.73;;
55067;SDS011;40965;52.368;9.712;2024-03-22T04:00:46;44.30;;;26.10;;
55067;SDS011;40965;52.368;9.712;2024-03-22T04:03:13;45.80;;;27.10;;
55067;SDS011;40965;52.368;9.712;2024-03-22T04:05:39;49.88;;;27.85;;
55067;SDS011;40965;52.368;9.712;2024-03-22T04:08:06;48.40;;;26.58;;
55067;SDS011;40965;52.368;9.712;2024-03-22T04:10:32;51.80;;;27.70;;
55067;SDS011;40965;52.368;9.712;2024-03-22T04:12:58;46.72;;;25.95;;
55067;SDS011;40965;52.368;9.712;2024-03-22T04:15:24;50.15;;;26.52;;
55067;SDS011;40965;52.368;9.712;2024-03-22T04:17:51;45.85;;;24.58;;
55067;SDS011;40965;52.368;9.712;2024-03-22T04:20:19;49.63;;;27.15;;
55067;SDS011;40965;52.368;9.712;2024-03-22T04:22:46;44.22;;;26.27;;
55067;SDS011;40965;52.368;9.712;2024-03-22T04:25:14;52.30;;;29.52;;
55067;SDS011;40965;52.368;9.712;2024-03-22T04:27:41;51.92;;;26.73;;
55067;SDS011;40965;52.368;9.712;2024-03-22T04:30:07;51.78;;;27.80;;
55067;SDS011;40965;52.368;9.712;2024-03-22T04:32:39;49.97;;;27.13;;
55067;SDS011;40965;52.368;9.712;2024-03-22T04:35:05;46.63;;;25.27;;
55067;SDS011;40965;52.368;9.712;2024-03-22T04:37:32;48.65;;;27.45;;
55067;SDS011;40965;52.368;9.712;2024-03-22T04:39:59;50.63;;;28.50;;
55067;SDS011;40965;52.368;9.712;2024-03-22T04:42:32;54.97;;;27.70;;
55067;SDS011;40965;52.368;9.712;2024-03-22T04:45:00;49.78;;;27.17;;
55067;SDS011;40965;52.368;9.712;2024-03-22T04:47:36;50.33;;;28.45;;
55067;SDS011;40965;52.368;9.712;2024-03-22T04:50:03;49.55;;;27.65;;
55067;SDS011;40965;52.368;9.712;2024-03-22T04:52:30;54.00;;;28.55;;
55067;SDS011;40965;52.368;9.712;2024-03-22T04:54:56;58.80;;;28.17;;
55067;SDS011;40965;52.368;9.712;2024-03-22T04:57:23;52.75;;;29.80;;
55067;SDS011;40965;52.368;9.712;2024-03-22T04:59:50;55.17;;;29.85;;
55067;SDS011;40965;52.368;9.712;2024-03-22T05:02:21;56.97;;;31.20;;
55067;SDS011;40965;52.368;9.712;2024-03-22T05:04:48;55.03;;;29.50;;
55067;SDS011;40965;52.368;9.712;2024-03-22T05:07:15;55.85;;;28.67;;
55067;SDS011;40965;52.368;9.712;2024-03-22T05:09:43;53.20;;;29.00;;
55067;SDS011;40965;52.368;9.712;2024-03-22T05:12:14;55.75;;;28.30;;
55067;SDS011;40965;52.368;9.712;2024-03-22T05:14:43;50.97;;;28.08;;
55067;SDS011;40965;52.368;9.712;2024-03-22T05:17:10;58.58;;;30.05;;
55067;SDS011;40965;52.368;9.712;2024-03-22T05:19:38;54.33;;;27.70;;
55067;SDS011;40965;52.368;9.712;2024-03-22T05:22:06;49.05;;;27.83;;
55067;SDS011;40965;52.368;9.712;2024-03-22T05:24:32;50.78;;;28.67;;
55067;SDS011;40965;52.368;9.712;2024-03-22T05:27:02;50.03;;;27.55;;
55067;SDS011;40965;52.368;9.712;2024-03-22T05:29:32;50.00;;;28.02;;
55067;SDS011;40965;52.368;9.712;2024-03-22T05:32:00;49.33;;;26.83;;
55067;SDS011;40965;52.368;9.712;2024-03-22T05:34:29;52.20;;;27.73;;
55067;SDS011;40965;52.368;9.712;2024-03-22T05:37:01;51.75;;;27.25;;
55067;SDS011;40965;52.368;9.712;2024-03-22T05:39:34;53.85;;;31.60;;
55067;SDS011;40965;52.368;9.712;2024-03-22T05:42:06;47.58;;;25.15;;
55067;SDS011;40965;52.368;9.712;2024-03-22T05:44:32;50.22;;;26.30;;
55067;SDS011;40965;52.368;9.712;2024-03-22T05:47:02;51.85;;;26.95;;
55067;SDS011;40965;52.368;9.712;2024-03-22T05:49:31;48.22;;;25.67;;
55067;SDS011;40965;52.368;9.712;2024-03-22T05:52:19;44.80;;;25.58;;
55067;SDS011;40965;52.368;9.712;2024-03-22T05:54:46;53.83;;;26.85;;
55067;SDS011;40965;52.368;9.712;2024-03-22T05:57:18;47.50;;;25.33;;
55067;SDS011;40965;52.368;9.712;2024-03-22T05:59:43;50.95;;;27.23;;
55067;SDS011;40965;52.368;9.712;2024-03-22T06:02:19;46.10;;;26.67;;
55067;SDS011;40965;52.368;9.712;2024-03-22T06:04:48;46.78;;;25.50;;
55067;SDS011;40965;52.368;9.712;2024-03-22T06:07:17;52.80;;;26.38;;
55067;SDS011;40965;52.368;9.712;2024-03-22T06:09:46;49.55;;;24.48;;
55067;SDS011;40965;52.368;9.712;2024-03-22T06:12:20;46.42;;;24.90;;
55067;SDS011;40965;52.368;9.712;2024-03-22T06:14:47;43.92;;;23.98;;
55067;SDS011;40965;52.368;9.712;2024-03-22T06:17:29;52.45;;;25.88;;
55067;SDS011;40965;52.368;9.712;2024-03-22T06:20:00;42.65;;;23.85;;
55067;SDS011;40965;52.368;9.712;2024-03-22T06:22:37;52.90;;;26.45;;
55067;SDS011;40965;52.368;9.712;2024-03-22T06:25:12;45.67;;;25.67;;
55067;SDS011;40965;52.368;9.712;2024-03-22T06:27:37;44.35;;;25.45;;
55067;SDS011;40965;52.368;9.712;2024-03-22T06:30:09;46.90;;;28.10;;
55067;SDS011;40965;52.368;9.712;2024-03-22T06:32:36;46.42;;;25.27;;
55067;SDS011;40965;52.368;9.712;2024-03-22T06:35:05;45.13;;;25.55;;
55067;SDS011;40965;52.368;9.712;2024-03-22T06:37:43;46.13;;;23.73;;
55067;SDS011;40965;52.368;9.712;2024-03-22T06:40:17;46.88;;;25.80;;
55067;SDS011;40965;52.368;9.712;2024-03-22T06:42:57;43.50;;;24.40;;
55067;SDS011;40965;52.368;9.712;2024-03-22T06:45:26;44.85;;;24.27;;
55067;SDS011;40965;52.368;9.712;2024-03-22T06:48:04;41.70;;;22.85;;
55067;SDS011;40965;52.368;9.712;2024-03-22T06:50:54;45.63;;;24.15;;
55067;SDS011;40965;52.368;9.712;2024-03-22T06:53:27;46.45;;;25.60;;
55067;SDS011;40965;52.368;9.712;2024-03-22T06:55:56;40.63;;;22.90;;
55067;SDS011;40965;52.368;9.712;2024-03-22T06:58:22;41.35;;;23.42;;
55067;SDS011;40965;52.368;9.712;2024-03-22T07:00:50;40.05;;;21.92;;
55067;SDS011;40965;52.368;9.712;2024-03-22T07:03:18;37.65;;;22.73;;
55067;SDS011;40965;52.368;9.712;2024-03-22T07:05:48;40.53;;;22.38;;
55067;SDS011;40965;52.368;9.712;2024-03-22T07:08:20;38.80;;;21.52;;
55067;SDS011;40965;52.368;9.712;2024-03-22T07:10:48;35.83;;;22.17;;
55067;SDS011;40965;52.368;9.712;2024-03-22T07:13:15;40.25;;;22.10;;
55067;SDS011;40965;52.368;9.712;2024-03-22T07:15:44;33.60;;;19.42;;
55067;SDS011;40965;52.368;9.712;2024-03-22T07:18:13;36.00;;;20.30;;
55067;SDS011;40965;52.368;9.712;2024-03-22T07:20:45;35.13;;;20.58;;
55067;SDS011;40965;52.368;9.712;2024-03-22T07:23:11;33.42;;;19.35;;
55067;SDS011;40965;52.368;9.712;2024-03-22T07:25:38;34.72;;;20.40;;
55067;SDS011;40965;52.368;9.712;2024-03-22T07:28:05;35.15;;;18.80;;
55067;SDS011;40965;52.368;9.712;2024-03-22T07:30:41;29.83;;;18.52;;
55067;SDS011;40965;52.368;9.712;2024-03-22T07:33:07;33.15;;;17.92;;
55067;SDS011;40965;52.368;9.712;2024-03-22T07:35:42;33.45;;;19.05;;
55067;SDS011;40965;52.368;9.712;2024-03-22T07:38:09;31.35;;;19.35;;
55067;SDS011;40965;52.368;9.712;2024-03-22T07:40:36;34.55;;;18.77;;
55067;SDS011;40965;52.368;9.712;2024-03-22T07:43:02;254.50;;;64.65;;
55067;SDS011;40965;52.368;9.712;2024-03-22T07:45:34;36.50;;;19.83;;
55067;SDS011;40965;52.368;9.712;2024-03-22T07:48:01;28.92;;;18.02;;
55067;SDS011;40965;52.368;9.712;2024-03-22T07:50:32;33.25;;;18.88;;
55067;SDS011;40965;52.368;9.712;2024-03-22T07:52:58;26.98;;;18.88;;
55067;SDS011;40965;52.368;9.712;2024-03-22T07:55:28;28.00;;;18.55;;
55067;SDS011;40965;52.368;9.712;2024-03-22T07:57:57;30.25;;;17.55;;
55067;SDS011;40965;52.368;9.712;2024-03-22T08:00:24;28.65;;;17.80;;
55067;SDS011;40965;52.368;9.712;2024-03-22T08:02:51;33.45;;;18.48;;
55067;SDS011;40965;52.368;9.712;2024-03-22T08:05:18;25.45;;;15.98;;
55067;SDS011;40965;52.368;9.712;2024-03-22T08:07:47;37.17;;;17.05;;
55067;SDS011;40965;52.368;9.712;2024-03-22T08:10:19;29.05;;;16.42;;
55067;SDS011;40965;52.368;9.712;2024-03-22T08:12:52;33.60;;;17.05;;
55067;SDS011;40965;52.368;9.712;2024-03-22T08:15:23;35.90;;;19.00;;
55067;SDS011;40965;52.368;9.712;2024-03-22T08:17:49;26.92;;;18.30;;
55067;SDS011;40965;52.368;9.712;2024-03-22T08:20:18;29.90;;;17.58;;
55067;SDS011;40965;52.368;9.712;2024-03-22T08:22:44;30.23;;;18.23;;
55067;SDS011;40965;52.368;9.712;2024-03-22T08:25:13;25.98;;;16.20;;
55067;SDS011;40965;52.368;9.712;2024-03-22T08:27:42;27.63;;;17.08;;
55067;SDS011;40965;52.368;9.712;2024-03-22T08:30:11;25.25;;;16.30;;
55067;SDS011;40965;52.368;9.712;2024-03-22T08:32:37;30.45;;;18.00;;
55067;SDS011;40965;52.368;9.712;2024-03-22T08:35:06;25.27;;;16.35;;
55067;SDS011;40965;52.368;9.712;2024-03-22T08:37:33;24.55;;;15.93;;
55067;SDS011;40965;52.368;9.712;2024-03-22T08:40:00;26.42;;;16.85;;
55067;SDS011;40965;52.368;9.712;2024-03-22T08:42:26;28.40;;;16.35;;
55067;SDS011;40965;52.368;9.712;2024-03-22T08:44:52;28.63;;;15.77;;
55067;SDS011;40965;52.368;9.712;2024-03-22T08:47:18;28.10;;;16.40;;
55067;SDS011;40965;52.368;9.712;2024-03-22T08:50:01;25.42;;;14.77;;
55067;SDS011;40965;52.368;9.712;2024-03-22T08:52:33;23.77;;;15.27;;
55067;SDS011;40965;52.368;9.712;2024-03-22T08:55:00;23.60;;;16.10;;
55067;SDS011;40965;52.368;9.712;2024-03-22T08:57:29;30.35;;;16.52;;
55067;SDS011;40965;52.368;9.712;2024-03-22T09:00:01;27.40;;;15.93;;
55067;SDS011;40965;52.368;9.712;2024-03-22T09:02:34;29.35;;;15.05;;
55067;SDS011;40965;52.368;9.712;2024-03-22T09:05:03;25.38;;;14.82;;
55067;SDS011;40965;52.368;9.712;2024-03-22T09:07:34;23.05;;;14.60;;
55067;SDS011;40965;52.368;9.712;2024-03-22T09:10:07;27.40;;;15.20;;
55067;SDS011;40965;52.368;9.712;2024-03-22T09:12:34;25.55;;;14.93;;
55067;SDS011;40965;52.368;9.712;2024-03-22T09:15:03;26.13;;;14.77;;
55067;SDS011;40965;52.368;9.712;2024-03-22T09:17:33;23.42;;;14.35;;
55067;SDS011;40965;52.368;9.712;2024-03-22T09:19:59;22.77;;;14.23;;
55067;SDS011;40965;52.368;9.712;2024-03-22T09:22:26;23.92;;;14.02;;
55067;SDS011;40965;52.368;9.712;2024-03-22T09:24:52;21.23;;;12.52;;
55067;SDS011;40965;52.368;9.712;2024-03-22T09:27:21;26.92;;;14.57;;
55067;SDS011;40965;52.368;9.712;2024-03-22T09:29:48;20.15;;;13.85;;
55067;SDS011;40965;52.368;9.712;2024-03-22T09:32:15;22.42;;;13.43;;
55067;SDS011;40965;52.368;9.712;2024-03-22T09:34:41;21.92;;;12.88;;
55067;SDS011;40965;52.368;9.712;2024-03-22T09:37:08;23.40;;;13.75;;
55067;SDS011;40965;52.368;9.712;2024-03-22T09:39:34;22.00;;;12.82;;
55067;SDS011;40965;52.368;9.712;2024-03-22T09:42:03;27.20;;;14.45;;
55067;SDS011;40965;52.368;9.712;2024-03-22T09:44:47;22.67;;;14.30;;
55067;SDS011;40965;52.368;9.712;2024-03-22T09:49:48;22.23;;;13.43;;
55067;SDS011;40965;52.368;9.712;2024-03-22T09:52:18;19.52;;;12.73;;
55067;SDS011;40965;52.368;9.712;2024-03-22T09:54:48;22.75;;;13.07;;
55067;SDS011;40965;52.368;9.712;2024-03-22T09:57:16;21.13;;;12.27;;
55067;SDS011;40965;52.368;9.712;2024-03-22T09:59:45;26.05;;;13.48;;
55067;SDS011;40965;52.368;9.712;2024-03-22T10:02:20;20.67;;;12.35;;
55067;SDS011;40965;52.368;9.712;2024-03-22T10:04:51;24.02;;;13.20;;
55067;SDS011;40965;52.368;9.712;2024-03-22T10:07:18;19.60;;;12.70;;
55067;SDS011;40965;52.368;9.712;2024-03-22T10:09:46;19.45;;;12.75;;
55067;SDS011;40965;52.368;9.712;2024-03-22T10:12:13;20.38;;;12.18;;
55067;SDS011;40965;52.368;9.712;2024-03-22T10:14:44;25.02;;;13.68;;
55067;SDS011;40965;52.368;9.712;2024-03-22T10:17:11;18.95;;;12.95;;
55067;SDS011;40965;52.368;9.712;2024-03-22T10:19:37;22.02;;;13.65;;
55067;SDS011;40965;52.368;9.712;2024-03-22T10:22:07;23.45;;;11.77;;
55067;SDS011;40965;52.368;9.712;2024-03-22T10:24:32;17.92;;;12.15;;
55067;SDS011;40965;52.368;9.712;2024-03-22T10:27:02;17.30;;;12.40;;
55067;SDS011;40965;52.368;9.712;2024-03-22T10:29:28;20.42;;;13.63;;
55067;SDS011;40965;52.368;9.712;2024-03-22T10:31:55;21.83;;;12.93;;
55067;SDS011;40965;52.368;9.712;2024-03-22T10:34:21;24.60;;;14.00;;
55067;SDS011;40965;52.368;9.712;2024-03-22T10:36:49;17.42;;;12.48;;
55067;SDS011;40965;52.368;9.712;2024-03-22T10:39:17;20.23;;;12.50;;
55067;SDS011;40965;52.368;9.712;2024-03-22T10:41:47;21.88;;;13.55;;
55067;SDS011;40965;52.368;9.712;2024-03-22T10:44:14;25.92;;;13.43;;
55067;SDS011;40965;52.368;9.712;2024-03-22T10:46:45;24.77;;;14.43;;
55067;SDS011;40965;52.368;9.712;2024-03-22T10:49:22;22.25;;;13.07;;
55067;SDS011;40965;52.368;9.712;2024-03-22T10:51:51;21.45;;;13.70;;
55067;SDS011;40965;52.368;9.712;2024-03-22T10:54:25;19.85;;;13.98;;
55067;SDS011;40965;52.368;9.712;2024-03-22T10:56:59;23.23;;;14.25;;
55067;SDS011;40965;52.368;9.712;2024-03-22T10:59:32;25.52;;;14.60;;
55067;SDS011;40965;52.368;9.712;2024-03-22T11:02:03;18.25;;;12.30;;
55067;SDS011;40965;52.368;9.712;2024-03-22T11:04:32;18.80;;;13.18;;
55067;SDS011;40965;52.368;9.712;2024-03-22T11:06:58;18.52;;;13.50;;
55067;SDS011;40965;52.368;9.712;2024-03-22T11:09:26;18.52;;;12.55;;
55067;SDS011;40965;52.368;9.712;2024-03-22T11:11:52;17.45;;;12.38;;
55067;SDS011;40965;52.368;9.712;2024-03-22T11:14:24;15.57;;;11.60;;
55067;SDS011;40965;52.368;9.712;2024-03-22T11:16:52;23.67;;;12.25;;
55067;SDS011;40965;52.368;9.712;2024-03-22T11:19:19;17.48;;;11.80;;
55067;SDS011;40965;52.368;9.712;2024-03-22T11:21:45;17.20;;;11.85;;
55067;SDS011;40965;52.368;9.712;2024-03-22T11:24:13;20.92;;;12.50;;
55067;SDS011;40965;52.368;9.712;2024-03-22T11:26:41;22.48;;;12.45;;
55067;SDS011;40965;52.368;9.712;2024-03-22T11:29:09;21.35;;;14.23;;
55067;SDS011;40965;52.368;9.712;2024-03-22T11:31:37;21.23;;;12.48;;
55067;SDS011;40965;52.368;9.712;2024-03-22T11:34:06;17.48;;;11.93;;
55067;SDS011;40965;52.368;9.712;2024-03-22T11:36:32;17.55;;;11.90;;
55067;SDS011;40965;52.368;9.712;2024-03-22T11:38:59;15.50;;;11.55;;
55067;SDS011;40965;52.368;9.712;2024-03-22T11:41:27;19.02;;;11.90;;
55067;SDS011;40965;52.368;9.712;2024-03-22T11:43:56;18.08;;;12.02;;
55067;SDS011;40965;52.368;9.712;2024-03-22T11:46:23;17.05;;;12.32;;
55067;SDS011;40965;52.368;9.712;2024-03-22T11:48:56;18.65;;;11.80;;
55067;SDS011;40965;52.368;9.712;2024-03-22T11:51:32;21.92;;;11.93;;
55067;SDS011;40965;52.368;9.712;2024-03-22T11:54:20;16.55;;;10.77;;
55067;SDS011;40965;52.368;9.712;2024-03-22T11:56:56;21.67;;;13.57;;
55067;SDS011;40965;52.368;9.712;2024-03-22T11:59:23;19.25;;;12.10;;
55067;SDS011;40965;52.368;9.712;2024-03-22T12:02:05;23.63;;;12.65;;
55067;SDS011;40965;52.368;9.712;2024-03-22T12:04:45;19.85;;;13.52;;
55067;SDS011;40965;52.368;9.712;2024-03-22T12:07:24;20.98;;;13.45;;
55067;SDS011;40965;52.368;9.712;2024-03-22T12:09:50;20.63;;;13.18;;
55067;SDS011;40965;52.368;9.712;2024-03-22T12:12:22;21.40;;;13.73;;
55067;SDS011;40965;52.368;9.712;2024-03-22T12:15:13;18.90;;;13.02;;
55067;SDS011;40965;52.368;9.712;2024-03-22T12:17:39;24.80;;;12.80;;
55067;SDS011;40965;52.368;9.712;2024-03-22T12:20:08;23.38;;;13.75;;
55067;SDS011;40965;52.368;9.712;2024-03-22T12:22:35;23.90;;;14.95;;
55067;SDS011;40965;52.368;9.712;2024-03-22T12:25:01;22.30;;;14.65;;
55067;SDS011;40965;52.368;9.712;2024-03-22T12:27:31;23.90;;;15.82;;
55067;SDS011;40965;52.368;9.712;2024-03-22T12:30:00;22.10;;;14.48;;
55067;SDS011;40965;52.368;9.712;2024-03-22T12:32:27;23.27;;;15.70;;
55067;SDS011;40965;52.368;9.712;2024-03-22T12:35:00;23.73;;;16.02;;
55067;SDS011;40965;52.368;9.712;2024-03-22T12:37:29;25.50;;;15.30;;
55067;SDS011;40965;52.368;9.712;2024-03-22T12:40:05;26.05;;;15.18;;
55067;SDS011;40965;52.368;9.712;2024-03-22T12:42:40;26.40;;;17.25;;
55067;SDS011;40965;52.368;9.712;2024-03-22T12:45:06;25.52;;;15.55;;
55067;SDS011;40965;52.368;9.712;2024-03-22T12:47:33;26.10;;;16.08;;
55067;SDS011;40965;52.368;9.712;2024-03-22T12:49:59;23.75;;;15.45;;
55067;SDS011;40965;52.368;9.712;2024-03-22T12:52:26;29.98;;;17.38;;
55067;SDS011;40965;52.368;9.712;2024-03-22T12:54:52;27.45;;;16.35;;
55067;SDS011;40965;52.368;9.712;2024-03-22T12:57:19;24.63;;;16.08;;
55067;SDS011;40965;52.368;9.712;2024-03-22T12:59:45;23.65;;;15.40;;
55067;SDS011;40965;52.368;9.712;2024-03-22T13:02:12;26.83;;;16.00;;
55067;SDS011;40965;52.368;9.712;2024-03-22T13:04:41;22.40;;;16.13;;
55067;SDS011;40965;52.368;9.712;2024-03-22T13:07:08;23.65;;;14.63;;
55067;SDS011;40965;52.368;9.712;2024-03-22T13:09:37;21.08;;;15.43;;
55067;SDS011;40965;52.368;9.712;2024-03-22T13:12:07;23.25;;;15.13;;
55067;SDS011;40965;52.368;9.712;2024-03-22T13:14:33;24.45;;;14.02;;
55067;SDS011;40965;52.368;9.712;2024-03-22T13:17:03;25.38;;;15.57;;
55067;SDS011;40965;52.368;9.712;2024-03-22T13:19:29;24.92;;;17.20;;
55067;SDS011;40965;52.368;9.712;2024-03-22T13:21:59;26.80;;;15.40;;
55067;SDS011;40965;52.368;9.712;2024-03-22T13:24:26;21.42;;;14.30;;
55067;SDS011;40965;52.368;9.712;2024-03-22T13:26:54;23.80;;;14.82;;
55067;SDS011;40965;52.368;9.712;2024-03-22T13:29:20;18.08;;;13.88;;
55067;SDS011;40965;52.368;9.712;2024-03-22T13:31:46;21.48;;;13.10;;
55067;SDS011;40965;52.368;9.712;2024-03-22T13:34:14;21.20;;;14.15;;
55067;SDS011;40965;52.368;9.712;2024-03-22T13:36:40;20.70;;;14.63;;
55067;SDS011;40965;52.368;9.712;2024-03-22T13:39:06;20.15;;;14.82;;
55067;SDS011;40965;52.368;9.712;2024-03-22T13:41:35;21.13;;;14.90;;
55067;SDS011;40965;52.368;9.712;2024-03-22T13:44:04;23.00;;;14.52;;
55067;SDS011;40965;52.368;9.712;2024-03-22T13:46:33;20.88;;;13.50;;
55067;SDS011;40965;52.368;9.712;2024-03-22T13:49:02;21.23;;;14.30;;
55067;SDS011;40965;52.368;9.712;2024-03-22T13:51:32;18.75;;;12.75;;
55067;SDS011;40965;52.368;9.712;2024-03-22T13:53:59;17.85;;;13.13;;
55067;SDS011;40965;52.368;9.712;2024-03-22T13:56:31;21.17;;;14.40;;
55067;SDS011;40965;52.368;9.712;2024-03-22T13:58:57;22.25;;;13.27;;
55067;SDS011;40965;52.368;9.712;2024-03-22T14:01:24;18.73;;;14.23;;
55067;SDS011;40965;52.368;9.712;2024-03-22T14:03:50;20.63;;;13.23;;
55067;SDS011;40965;52.368;9.712;2024-03-22T14:06:18;21.08;;;12.70;;
55067;SDS011;40965;52.368;9.712;2024-03-22T14:08:43;18.13;;;12.73;;
55067;SDS011;40965;52.368;9.712;2024-03-22T14:11:11;18.50;;;12.80;;
55067;SDS011;40965;52.368;9.712;2024-03-22T14:13:38;22.05;;;15.77;;
55067;SDS011;40965;52.368;9.712;2024-03-22T14:16:05;23.20;;;15.93;;
55067;SDS011;40965;52.368;9.712;2024-03-22T14:18:33;23.50;;;14.63;;
55067;SDS011;40965;52.368;9.712;2024-03-22T14:21:09;25.33;;;16.05;;
55067;SDS011;40965;52.368;9.712;2024-03-22T14:23:36;23.15;;;13.60;;
55067;SDS011;40965;52.368;9.712;2024-03-22T14:26:03;26.35;;;16.90;;
55067;SDS011;40965;52.368;9.712;2024-03-22T14:28:29;24.33;;;16.50;;
55067;SDS011;40965;52.368;9.712;2024-03-22T14:30:56;24.25;;;16.30;;
55067;SDS011;40965;52.368;9.712;2024-03-22T14:33:24;23.67;;;15.25;;